Time;durP1;ratioP1;P1;durP2;ratioP2;P2;SDS_P1;SDS_P2;PMS_P1;PMS_P2;Temp;Humidity;BMP_temperature;BMP_pressure;BME280_temperature;BME280_humidity;BME280_pressure;Samples;Min_cycle;Max_cycle;Signal;HPM_P1;HPM_P2
2024/04/13 00:02:02;;;;;;;0.10;0.10;;;13.30;1.00;;;;;;5525355;25;20021;-88
2024/04/13 00:04:30;;;;;;;0.10;0.10;;;13.30;1.00;;;;;;5561931;25;20021;-90
2024/04/13 00:06:57;;;;;;;0.10;0.10;;;13.30;1.00;;;;;;5558448;25;20021;-88
2024/04/13 00:09:23;;;;;;;0.10;0.10;;;13.30;1.00;;;;;;5561566;25;20021;-91
2024/04/13 00:11:51;;;;;;;0.10;0.10;;;13.30;1.00;;;;;;5560478;25;20032;-88
2024/04/13 00:14:18;;;;;;;0.10;0.10;;;13.30;1.00;;;;;;5570587;25;20060;-88
2024/04/13 00:16:45;;;;;;;0.10;0.10;;;13.30;1.00;;;;;;5540481;25;20029;-89
2024/04/13 00:19:12;;;;;;;0.10;0.10;;;13.30;1.00;;;;;;5544667;25;20029;-89
2024/04/13 00:21:41;;;;;;;0.10;0.10;;;13.30;1.00;;;;;;5523271;25;20021;-90
2024/04/13 00:24:10;;;;;;;0.10;0.10;;;13.30;1.00;;;;;;5523681;25;20033;-88
2024/04/13 00:26:37;;;;;;;0.10;0.10;;;13.30;1.00;;;;;;5522162;25;20369;-87
2024/04/13 00:29:07;;;;;;;0.10;0.10;;;13.30;1.00;;;;;;5523066;25;20013;-86
2024/04/13 00:31:34;;;;;;;0.10;0.10;;;13.20;1.00;;;;;;5523091;25;20021;-88
2024/04/13 00:34:04;;;;;;;0.10;0.10;;;13.20;1.00;;;;;;5523668;25;20030;-89
2024/04/13 00:36:35;;;;;;;0.10;0.10;;;13.30;1.00;;;;;;5523468;25;20030;-87
2024/04/13 00:39:05;;;;;;;0.20;0.20;;;13.30;1.00;;;;;;5522405;25;20025;-90
2024/04/13 00:41:32;;;;;;;0.10;0.10;;;13.30;1.00;;;;;;5522424;26;20026;-86
2024/04/13 00:44:00;;;;;;;0.10;0.10;;;13.30;1.00;;;;;;5522427;25;20029;-88
2024/04/13 00:46:31;;;;;;;0.10;0.10;;;13.20;1.00;;;;;;5523146;25;20025;-88
2024/04/13 00:49:13;;;;;;;0.10;0.10;;;13.30;1.00;;;;;;5521683;25;20037;-90
2024/04/13 00:51:44;;;;;;;0.10;0.10;;;13.20;1.00;;;;;;5520689;25;20005;-90
2024/04/13 00:54:14;;;;;;;0.10;0.10;;;13.20;1.00;;;;;;5523798;25;20005;-88
2024/04/13 00:56:40;;;;;;;0.15;0.15;;;13.20;1.00;;;;;;5522294;25;20469;-91
2024/04/13 00:59:07;;;;;;;0.10;0.10;;;13.20;1.00;;;;;;5524249;25;20081;-90
2024/04/13 01:01:33;;;;;;;0.10;0.10;;;13.20;1.00;;;;;;5523547;25;20072;-89
2024/04/13 01:04:00;;;;;;;0.20;0.20;;;13.20;1.00;;;;;;5554415;25;20467;-89
2024/04/13 01:06:28;;;;;;;0.20;0.20;;;13.20;1.00;;;;;;5559384;25;20040;-89
2024/04/13 01:08:54;;;;;;;0.20;0.20;;;13.20;1.00;;;;;;5559616;25;20008;-87
2024/04/13 01:11:21;;;;;;;0.10;0.10;;;13.20;1.00;;;;;;5560462;25;20677;-88
2024/04/13 01:13:48;;;;;;;0.20;0.20;;;13.20;1.00;;;;;;5562055;25;20029;-86
2024/04/13 01:16:14;;;;;;;0.10;0.10;;;13.20;1.00;;;;;;5558741;25;20016;-88
2024/04/13 01:18:41;;;;;;;0.10;0.10;;;13.20;1.00;;;;;;5560605;25;20061;-90
2024/04/13 01:21:06;;;;;;;0.10;0.10;;;13.20;1.00;;;;;;5527940;25;20009;-92
2024/04/13 01:23:38;;;;;;;0.15;0.15;;;13.10;1.00;;;;;;5523409;26;20005;-86
2024/04/13 01:26:07;;;;;;;0.10;0.10;;;13.10;1.00;;;;;;5525435;25;20005;-89
2024/04/13 01:28:33;;;;;;;0.20;0.20;;;13.10;1.00;;;;;;5523451;25;20019;-90
2024/04/13 01:31:00;;;;;;;0.10;0.10;;;13.10;1.00;;;;;;5523712;25;20558;-88
2024/04/13 01:33:26;;;;;;;0.20;0.20;;;13.10;1.00;;;;;;5536416;25;20016;-88
2024/04/13 01:35:57;;;;;;;0.10;0.10;;;13.10;1.00;;;;;;5532427;26;20005;-89
2024/04/13 01:38:23;;;;;;;0.10;0.10;;;13.00;1.00;;;;;;5528460;25;20002;-90
2024/04/13 01:40:49;;;;;;;0.10;0.10;;;13.20;1.00;;;;;;5522444;26;20517;-89
2024/04/13 01:43:15;;;;;;;0.20;0.20;;;13.10;1.00;;;;;;5523665;26;20009;-91
2024/04/13 01:45:41;;;;;;;0.10;0.10;;;13.10;1.00;;;;;;5523612;25;20046;-89
2024/04/13 01:48:07;;;;;;;0.20;0.20;;;13.00;1.00;;;;;;5521925;26;20361;-87
2024/04/13 01:50:34;;;;;;;0.10;0.10;;;12.90;1.00;;;;;;5524044;25;20332;-89
2024/04/13 01:53:00;;;;;;;0.10;0.10;;;13.10;1.00;;;;;;5522674;26;20015;-91
2024/04/13 01:55:26;;;;;;;0.10;0.10;;;13.00;1.00;;;;;;5523105;26;20341;-88
2024/04/13 01:57:51;;;;;;;0.10;0.10;;;13.00;1.00;;;;;;5521469;26;20005;-87
2024/04/13 02:00:20;;;;;;;0.10;0.10;;;13.00;1.00;;;;;;5522014;26;20012;-90
2024/04/13 02:02:46;;;;;;;0.10;0.10;;;13.00;1.00;;;;;;5532917;25;20351;-89
2024/04/13 02:05:12;;;;;;;0.10;0.10;;;12.90;1.00;;;;;;5559475;25;20021;-90
2024/04/13 02:07:37;;;;;;;0.10;0.10;;;12.90;1.00;;;;;;5558124;25;20005;-88
2024/04/13 02:10:06;;;;;;;0.10;0.10;;;12.90;1.00;;;;;;5559466;25;20004;-88
2024/04/13 02:12:32;;;;;;;0.10;0.10;;;12.90;1.00;;;;;;5558924;25;20015;-90
2024/04/13 02:15:12;;;;;;;0.20;0.20;;;12.90;1.00;;;;;;5557229;25;20000;-91
2024/04/13 02:17:38;;;;;;;0.10;0.10;;;12.90;1.00;;;;;;5521747;26;20342;-89
2024/04/13 02:20:05;;;;;;;0.15;0.15;;;12.90;1.00;;;;;;5521393;26;20016;-89
2024/04/13 02:22:35;;;;;;;0.20;0.20;;;12.90;1.00;;;;;;5520602;25;20080;-88
2024/04/13 02:25:02;;;;;;;0.10;0.10;;;12.80;1.00;;;;;;5520483;25;20024;-90
2024/04/13 02:27:28;;;;;;;0.08;0.08;;;12.80;1.00;;;;;;5522708;25;20013;-88
2024/04/13 02:29:54;;;;;;;0.10;0.10;;;12.80;1.00;;;;;;5523226;26;20002;-89
2024/04/13 02:32:20;;;;;;;0.13;0.13;;;12.90;1.00;;;;;;5521762;25;20005;-89
2024/04/13 02:34:45;;;;;;;0.10;0.10;;;12.80;1.00;;;;;;5520985;26;20655;-89
2024/04/13 02:37:11;;;;;;;0.10;0.10;;;12.90;1.00;;;;;;5520158;26;20051;-88
2024/04/13 02:39:37;;;;;;;0.10;0.10;;;12.80;1.00;;;;;;5522143;26;20020;-88
2024/04/13 02:42:23;;;;;;;0.15;0.15;;;12.70;1.00;;;;;;5519805;26;20453;-89
2024/04/13 02:44:49;;;;;;;0.10;0.10;;;12.70;1.00;;;;;;5521388;26;20016;-90
2024/04/13 02:47:14;;;;;;;0.10;0.10;;;12.70;1.00;;;;;;5520849;25;20006;-88
2024/04/13 02:49:40;;;;;;;0.10;0.10;;;12.80;1.00;;;;;;5521367;26;20325;-88
2024/04/13 02:52:06;;;;;;;0.10;0.10;;;12.70;1.00;;;;;;5521359;26;20074;-90
2024/04/13 02:54:32;;;;;;;0.20;0.20;;;12.70;1.00;;;;;;5522696;26;20034;-90
2024/04/13 02:56:57;;;;;;;0.10;0.10;;;12.60;1.00;;;;;;5532817;25;20034;-87
2024/04/13 02:59:23;;;;;;;0.10;0.10;;;12.70;1.00;;;;;;5531472;26;20422;-88
2024/04/13 03:01:49;;;;;;;0.10;0.10;;;12.60;1.00;;;;;;5520502;26;20005;-89
2024/04/13 03:04:16;;;;;;;0.10;0.10;;;12.60;1.00;;;;;;5556287;25;20445;-89
2024/04/13 03:06:42;;;;;;;0.10;0.10;;;12.60;1.00;;;;;;5557562;25;20052;-88
2024/04/13 03:09:20;;;;;;;0.20;0.20;;;12.50;1.00;;;;;;5562995;25;20020;-91
2024/04/13 03:11:45;;;;;;;0.20;0.20;;;12.50;1.00;;;;;;5559471;25;20072;-87
2024/04/13 03:14:31;;;;;;;0.20;0.20;;;12.50;1.00;;;;;;5556162;25;20012;-88
2024/04/13 03:16:58;;;;;;;0.15;0.15;;;12.50;1.00;;;;;;5527432;25;20057;-88
2024/04/13 03:19:24;;;;;;;0.20;0.20;;;12.50;1.00;;;;;;5537406;25;19997;-88
2024/04/13 03:22:09;;;;;;;0.20;0.20;;;12.40;1.00;;;;;;5531177;25;20015;-91
2024/04/13 03:24:35;;;;;;;0.13;0.13;;;12.40;1.00;;;;;;5556870;25;20005;-88
2024/04/13 03:27:02;;;;;;;0.10;0.10;;;12.30;1.00;;;;;;5557755;25;20436;-91
2024/04/13 03:29:32;;;;;;;0.10;0.10;;;12.40;1.00;;;;;;5558598;25;20005;-87
2024/04/13 03:32:17;;;;;;;0.10;0.10;;;12.40;1.00;;;;;;5556540;25;20397;-91
2024/04/13 03:34:43;;;;;;;0.10;0.10;;;12.30;1.00;;;;;;5557905;25;20034;-91
2024/04/13 03:37:09;;;;;;;0.10;0.10;;;12.30;1.00;;;;;;5556717;25;20004;-88
2024/04/13 03:39:37;;;;;;;0.10;0.10;;;12.30;1.00;;;;;;5558955;25;20004;-90
2024/04/13 03:42:03;;;;;;;0.20;0.20;;;12.30;1.00;;;;;;5557642;25;20020;-88
2024/04/13 03:44:33;;;;;;;0.10;0.10;;;12.30;1.00;;;;;;5558488;25;20005;-89
2024/04/13 03:46:59;;;;;;;0.10;0.10;;;12.30;1.00;;;;;;5561393;25;20376;-91
2024/04/13 03:49:44;;;;;;;0.20;0.20;;;12.20;1.00;;;;;;5556427;25;20012;-89
2024/04/13 03:52:12;;;;;;;0.10;0.10;;;12.20;1.00;;;;;;5555615;25;20025;-89
2024/04/13 03:54:40;;;;;;;0.20;0.20;;;12.20;1.00;;;;;;5557555;25;20021;-89
2024/04/13 03:57:07;;;;;;;0.10;0.10;;;12.20;1.00;;;;;;5557291;25;20456;-92
2024/04/13 03:59:33;;;;;;;0.10;0.10;;;12.20;1.00;;;;;;5557535;25;20029;-91
2024/04/13 04:02:01;;;;;;;0.10;0.10;;;12.10;1.00;;;;;;5543762;25;20049;-89
2024/04/13 04:04:30;;;;;;;0.10;0.10;;;12.10;1.00;;;;;;5555967;25;20056;-89
2024/04/13 04:06:58;;;;;;;0.10;0.10;;;12.10;1.00;;;;;;5555371;25;20033;-89
2024/04/13 04:09:25;;;;;;;0.20;0.20;;;12.10;1.00;;;;;;5558197;25;20549;-90
2024/04/13 04:11:51;;;;;;;0.10;0.10;;;12.10;1.00;;;;;;5555970;25;20051;-89
2024/04/13 04:14:18;;;;;;;0.10;0.10;;;12.10;1.00;;;;;;5561294;25;20029;-90
2024/04/13 04:16:46;;;;;;;0.10;0.10;;;12.10;1.00;;;;;;5561612;25;20159;-90
2024/04/13 04:19:13;;;;;;;0.10;0.10;;;12.10;1.00;;;;;;5569251;25;20032;-88
2024/04/13 04:21:40;;;;;;;0.20;0.20;;;12.10;1.00;;;;;;5557289;25;20024;-89
2024/04/13 04:24:07;;;;;;;0.10;0.10;;;12.00;1.00;;;;;;5525875;25;20041;-89
2024/04/13 04:26:34;;;;;;;0.10;0.10;;;12.10;1.00;;;;;;5523001;25;20025;-89
2024/04/13 04:29:01;;;;;;;0.13;0.13;;;12.00;1.00;;;;;;5523484;25;20477;-90
2024/04/13 04:31:28;;;;;;;0.20;0.20;;;12.00;1.00;;;;;;5523447;25;20022;-90
2024/04/13 04:33:54;;;;;;;0.20;0.20;;;12.00;1.00;;;;;;5523761;25;20469;-90
2024/04/13 04:36:22;;;;;;;0.13;0.13;;;12.00;1.00;;;;;;5521895;25;20029;-90
2024/04/13 04:38:52;;;;;;;0.10;0.10;;;12.00;1.00;;;;;;5522794;25;20044;-91
2024/04/13 04:41:18;;;;;;;0.20;0.20;;;12.00;1.00;;;;;;5522778;26;20030;-90
2024/04/13 04:43:45;;;;;;;0.10;0.10;;;12.00;1.00;;;;;;5523393;26;20039;-90
2024/04/13 04:46:12;;;;;;;0.10;0.10;;;11.90;1.00;;;;;;5522564;26;20025;-90
2024/04/13 04:48:39;;;;;;;0.10;0.10;;;11.90;1.00;;;;;;5522767;25;20025;-90
2024/04/13 04:51:05;;;;;;;0.20;0.20;;;11.90;1.00;;;;;;5522585;26;20322;-88
2024/04/13 04:53:30;;;;;;;0.10;0.10;;;11.90;1.00;;;;;;5524890;26;20020;-89
2024/04/13 04:55:59;;;;;;;0.10;0.10;;;11.90;1.00;;;;;;5524386;25;20421;-89
2024/04/13 04:58:25;;;;;;;0.10;0.10;;;11.90;1.00;;;;;;5523862;26;20453;-91
2024/04/13 05:00:51;;;;;;;0.10;0.10;;;11.90;1.00;;;;;;5529629;25;20009;-88
2024/04/13 05:03:18;;;;;;;0.10;0.10;;;11.90;1.00;;;;;;5562120;25;20099;-87
2024/04/13 05:05:44;;;;;;;0.15;0.15;;;11.90;1.00;;;;;;5558145;25;20036;-87
2024/04/13 05:08:10;;;;;;;0.10;0.10;;;11.90;1.00;;;;;;5559045;25;20011;-89
2024/04/13 05:10:37;;;;;;;0.10;0.10;;;11.90;1.00;;;;;;5556017;25;20024;-90
2024/04/13 05:13:03;;;;;;;0.10;0.10;;;11.90;1.00;;;;;;5523684;25;20006;-89
2024/04/13 05:15:28;;;;;;;0.17;0.17;;;12.00;1.00;;;;;;5523377;25;20011;-89
2024/04/13 05:17:55;;;;;;;0.10;0.10;;;11.90;1.00;;;;;;5540488;26;20044;-89
2024/04/13 05:20:21;;;;;;;0.10;0.10;;;12.00;1.00;;;;;;5525112;25;20016;-90
2024/04/13 05:22:48;;;;;;;0.10;0.10;;;12.00;1.00;;;;;;5520756;26;20006;-90
2024/04/13 05:25:14;;;;;;;0.10;0.10;;;12.00;1.00;;;;;;5530652;25;19998;-89
2024/04/13 05:27:40;;;;;;;0.20;0.20;;;12.00;1.00;;;;;;5521330;25;20401;-90
2024/04/13 05:30:06;;;;;;;0.20;0.20;;;12.10;1.00;;;;;;5522096;26;20013;-89
2024/04/13 05:32:33;;;;;;;0.15;0.15;;;12.00;1.00;;;;;;5522612;25;20077;-89
2024/04/13 05:34:59;;;;;;;0.20;0.20;;;12.00;1.00;;;;;;5522855;25;20005;-90
2024/04/13 05:37:25;;;;;;;0.10;0.10;;;12.00;1.00;;;;;;5520117;25;20060;-88
2024/04/13 05:39:51;;;;;;;0.10;0.10;;;12.10;1.00;;;;;;5527865;25;20601;-88
2024/04/13 05:42:17;;;;;;;0.10;0.10;;;12.10;1.00;;;;;;5535263;25;20001;-88
2024/04/13 05:44:43;;;;;;;0.10;0.10;;;12.10;1.00;;;;;;5521859;25;20453;-88
2024/04/13 05:47:09;;;;;;;0.10;0.10;;;12.10;1.00;;;;;;5522493;25;20625;-89
2024/04/13 05:49:34;;;;;;;0.10;0.10;;;12.20;1.00;;;;;;5522331;26;20154;-89
2024/04/13 05:52:00;;;;;;;0.10;0.10;;;12.20;1.00;;;;;;5519750;26;20002;-88
2024/04/13 05:54:26;;;;;;;0.10;0.10;;;12.20;1.00;;;;;;5523151;25;20005;-90
2024/04/13 05:56:53;;;;;;;0.10;0.10;;;12.20;1.00;;;;;;5522523;25;20349;-88
2024/04/13 05:59:19;;;;;;;0.20;0.20;;;12.30;1.00;;;;;;5522601;25;20615;-89
2024/04/13 06:01:45;;;;;;;0.10;0.10;;;12.30;1.00;;;;;;5521705;25;20480;-89
2024/04/13 06:04:10;;;;;;;0.10;0.10;;;12.40;1.00;;;;;;5551454;25;20004;-89
2024/04/13 06:06:36;;;;;;;0.10;0.10;;;12.40;1.00;;;;;;5557651;25;20048;-90
2024/04/13 06:09:02;;;;;;;0.10;0.10;;;12.40;1.00;;;;;;5559746;25;20005;-89
2024/04/13 06:11:28;;;;;;;0.10;0.10;;;12.40;1.00;;;;;;5558406;25;20004;-88
2024/04/13 06:13:54;;;;;;;0.10;0.10;;;12.50;1.00;;;;;;5563159;25;20046;-89
2024/04/13 06:16:20;;;;;;;0.10;0.10;;;12.50;1.00;;;;;;5559285;25;20015;-91
2024/04/13 06:18:45;;;;;;;0.20;0.20;;;12.50;1.00;;;;;;5560643;25;20017;-89
2024/04/13 06:21:12;;;;;;;0.10;0.10;;;12.60;1.00;;;;;;5558968;25;20469;-91
2024/04/13 06:23:38;;;;;;;0.20;0.20;;;12.60;1.00;;;;;;5559930;25;20015;-88
2024/04/13 06:26:05;;;;;;;0.10;0.10;;;12.60;1.00;;;;;;5524108;25;20004;-90
2024/04/13 06:28:31;;;;;;;0.10;0.10;;;12.60;1.00;;;;;;5521242;25;20016;-89
2024/04/13 06:30:57;;;;;;;0.10;0.10;;;12.70;1.00;;;;;;5521577;26;20009;-89
2024/04/13 06:33:23;;;;;;;0.10;0.10;;;12.70;1.00;;;;;;5521613;25;20341;-93
2024/04/13 06:35:51;;;;;;;0.20;0.20;;;12.80;1.00;;;;;;5521847;25;20006;-89
2024/04/13 06:38:22;;;;;;;0.10;0.10;;;12.80;1.00;;;;;;5523782;26;20018;-89
2024/04/13 06:40:47;;;;;;;0.10;0.10;;;12.90;1.00;;;;;;5521953;25;20016;-90
2024/04/13 06:43:14;;;;;;;0.13;0.13;;;12.90;1.00;;;;;;5522259;25;20059;-88
2024/04/13 06:45:40;;;;;;;0.10;0.10;;;13.00;1.00;;;;;;5521304;25;20461;-87
2024/04/13 06:48:06;;;;;;;0.10;0.10;;;13.00;1.00;;;;;;5519404;26;20006;-89
2024/04/13 06:50:32;;;;;;;0.10;0.10;;;13.00;1.00;;;;;;5521329;26;20005;-89
2024/04/13 06:52:57;;;;;;;0.17;0.17;;;13.10;1.00;;;;;;5519867;26;20475;-90
2024/04/13 06:55:23;;;;;;;0.10;0.10;;;13.10;1.00;;;;;;5521849;25;20016;-87
2024/04/13 06:57:49;;;;;;;0.10;0.10;;;13.10;1.00;;;;;;5523519;25;20017;-88
2024/04/13 07:00:15;;;;;;;0.13;0.13;;;13.10;1.00;;;;;;5521742;26;20005;-89
2024/04/13 07:02:41;;;;;;;0.10;0.10;;;13.20;1.00;;;;;;5520336;26;20006;-90
2024/04/13 07:05:07;;;;;;;0.10;0.10;;;13.30;1.00;;;;;;5520485;25;20033;-91
2024/04/13 07:07:33;;;;;;;0.10;0.10;;;13.30;1.00;;;;;;5518434;25;20016;-90
2024/04/13 07:09:58;;;;;;;0.10;0.10;;;13.40;1.00;;;;;;5521667;26;20013;-89
2024/04/13 07:12:25;;;;;;;0.13;0.13;;;13.50;1.00;;;;;;5520835;25;20017;-90
2024/04/13 07:14:51;;;;;;;0.10;0.10;;;13.60;1.00;;;;;;5520558;25;20424;-91
2024/04/13 07:17:17;;;;;;;0.13;0.13;;;13.60;1.00;;;;;;5562461;25;20000;-90
2024/04/13 07:19:42;;;;;;;0.20;0.20;;;13.70;1.00;;;;;;5569729;25;19996;-88
2024/04/13 07:22:10;;;;;;;0.10;0.10;;;13.70;1.00;;;;;;5557457;25;20032;-88
2024/04/13 07:24:37;;;;;;;0.10;0.10;;;13.80;1.00;;;;;;5559031;25;20015;-89
2024/04/13 07:27:04;;;;;;;0.10;0.10;;;13.80;1.00;;;;;;5531136;25;19997;-90
2024/04/13 07:29:29;;;;;;;0.10;0.10;;;13.90;1.00;;;;;;5519799;26;20020;-90
2024/04/13 07:31:55;;;;;;;0.10;0.10;;;14.00;1.00;;;;;;5521263;25;20406;-91
2024/04/13 07:34:21;;;;;;;0.10;0.10;;;14.00;1.00;;;;;;5524520;26;20080;-90
2024/04/13 07:36:46;;;;;;;0.10;0.10;;;14.10;1.00;;;;;;5519977;26;20005;-89
2024/04/13 07:39:12;;;;;;;0.10;0.10;;;14.20;1.00;;;;;;5521307;26;20013;-89
2024/04/13 07:41:39;;;;;;;0.20;0.20;;;14.20;1.00;;;;;;5520748;26;20424;-89
2024/04/13 07:44:04;;;;;;;0.10;0.10;;;14.30;1.00;;;;;;5519963;26;20021;-89
2024/04/13 07:46:31;;;;;;;0.10;0.10;;;14.40;1.00;;;;;;5520612;26;20016;-89
2024/04/13 07:48:57;;;;;;;0.20;0.20;;;14.40;1.00;;;;;;5520780;26;20386;-88
2024/04/13 07:51:23;;;;;;;0.10;0.10;;;14.50;1.00;;;;;;5518718;26;20016;-90
2024/04/13 07:53:48;;;;;;;0.20;0.20;;;14.60;1.00;;;;;;5524639;26;20005;-90
2024/04/13 07:56:14;;;;;;;0.10;0.10;;;14.60;1.00;;;;;;5520741;26;20102;-88
2024/04/13 07:58:43;;;;;;;0.10;0.10;;;14.60;1.00;;;;;;5520313;26;20005;-90
2024/04/13 08:01:09;;;;;;;0.10;0.10;;;14.70;1.00;;;;;;5524626;25;20019;-89
2024/04/13 08:03:34;;;;;;;0.20;0.20;;;14.70;1.00;;;;;;5549038;25;20445;-89
2024/04/13 08:06:00;;;;;;;0.20;0.20;;;14.70;1.00;;;;;;5535784;25;20951;-88
2024/04/13 08:08:26;;;;;;;0.10;0.10;;;14.80;1.00;;;;;;5522090;26;20344;-87
2024/04/13 08:10:52;;;;;;;0.10;0.10;;;14.80;1.00;;;;;;5523097;26;20005;-88
2024/04/13 08:13:18;;;;;;;0.10;0.10;;;14.80;1.00;;;;;;5527070;26;20344;-88
2024/04/13 08:15:43;;;;;;;0.20;0.20;;;14.90;1.00;;;;;;5533479;25;20041;-88
2024/04/13 08:18:09;;;;;;;0.13;0.13;;;14.80;1.00;;;;;;5560653;25;20005;-89
2024/04/13 08:20:35;;;;;;;0.15;0.15;;;15.00;1.00;;;;;;5561870;25;20076;-90
2024/04/13 08:23:02;;;;;;;0.20;0.20;;;15.00;1.00;;;;;;5563398;25;20467;-87
2024/04/13 08:25:28;;;;;;;0.17;0.17;;;15.10;1.00;;;;;;5561443;25;20005;-89
2024/04/13 08:27:55;;;;;;;0.10;0.10;;;15.20;1.00;;;;;;5554271;25;20036;-89
2024/04/13 08:30:22;;;;;;;0.10;0.10;;;15.20;1.00;;;;;;5561637;25;20013;-85
2024/04/13 08:32:48;;;;;;;0.10;0.10;;;15.30;1.00;;;;;;5560209;25;20029;-89
2024/04/13 08:35:17;;;;;;;0.10;0.10;;;15.50;1.00;;;;;;5561642;25;20004;-88
2024/04/13 08:37:46;;;;;;;0.10;0.10;;;15.50;1.00;;;;;;5559234;25;20004;-85
2024/04/13 08:40:11;;;;;;;0.10;0.10;;;15.60;1.00;;;;;;5560769;25;20000;-88
2024/04/13 08:42:40;;;;;;;0.10;0.10;;;15.70;1.00;;;;;;5559889;25;20072;-86
2024/04/13 08:45:11;;;;;;;0.13;0.13;;;15.70;1.00;;;;;;5563202;25;20317;-89
2024/04/13 08:47:40;;;;;;;0.20;0.20;;;15.80;1.00;;;;;;5560566;25;20015;-90
2024/04/13 08:50:07;;;;;;;0.15;0.15;;;15.80;1.00;;;;;;5560889;25;20015;-88
2024/04/13 08:52:33;;;;;;;0.10;0.10;;;15.80;1.00;;;;;;5561694;25;20011;-89
2024/04/13 08:54:59;;;;;;;0.10;0.10;;;15.90;1.00;;;;;;5559678;25;20012;-88
2024/04/13 08:57:29;;;;;;;0.10;0.10;;;15.90;1.00;;;;;;5560886;25;20005;-88
2024/04/13 09:00:02;;;;;;;0.10;0.10;;;15.90;1.00;;;;;;5560624;25;20357;-86
2024/04/13 09:02:35;;;;;;;0.10;0.10;;;16.00;1.00;;;;;;5561366;25;20012;-91
2024/04/13 09:05:04;;;;;;;0.17;0.17;;;16.00;1.00;;;;;;5578962;25;19993;-88
2024/04/13 09:07:34;;;;;;;0.20;0.20;;;16.00;1.00;;;;;;5529416;25;20341;-89
2024/04/13 09:10:00;;;;;;;0.20;0.20;;;16.10;1.00;;;;;;5522656;25;20359;-89
2024/04/13 09:12:26;;;;;;;0.10;0.10;;;16.20;1.00;;;;;;5521940;25;20029;-88
2024/04/13 09:14:54;;;;;;;0.10;0.10;;;16.30;1.00;;;;;;5522343;25;20050;-88
2024/04/13 09:17:20;;;;;;;0.10;0.10;;;16.40;1.00;;;;;;5523737;25;20013;-87
2024/04/13 09:19:46;;;;;;;0.20;0.20;;;16.60;1.00;;;;;;5522637;25;20006;-86
2024/04/13 09:22:14;;;;;;;0.10;0.10;;;16.70;1.00;;;;;;5521345;25;20056;-89
2024/04/13 09:24:41;;;;;;;0.10;0.10;;;16.80;1.00;;;;;;5523949;25;20021;-88
2024/04/13 09:27:28;;;;;;;0.20;0.20;;;16.90;1.00;;;;;;5523872;25;20005;-88
2024/04/13 09:30:11;;;;;;;0.15;0.15;;;17.00;1.00;;;;;;5559828;25;20385;-88
2024/04/13 09:32:37;;;;;;;0.10;0.10;;;17.00;1.00;;;;;;5562897;25;20008;-89
2024/04/13 09:35:10;;;;;;;0.10;0.10;;;17.10;1.00;;;;;;5561798;25;20000;-87
2024/04/13 09:37:36;;;;;;;0.20;0.20;;;17.20;1.00;;;;;;5558843;25;20397;-88
2024/04/13 09:40:03;;;;;;;0.10;0.10;;;17.20;1.00;;;;;;5560118;25;20278;-89
2024/04/13 09:42:29;;;;;;;0.10;0.10;;;17.20;1.00;;;;;;5559226;25;20004;-89
2024/04/13 09:45:06;;;;;;;0.10;0.10;;;17.20;1.00;;;;;;5559689;25;20016;-88
2024/04/13 09:47:32;;;;;;;0.10;0.10;;;17.20;1.00;;;;;;5560361;25;20012;-88
2024/04/13 09:49:58;;;;;;;0.10;0.10;;;17.20;1.00;;;;;;5559848;25;20016;-88
2024/04/13 09:52:24;;;;;;;0.20;0.20;;;17.20;1.00;;;;;;5558767;25;20009;-87
2024/04/13 09:54:51;;;;;;;0.20;0.20;;;17.30;1.00;;;;;;5559218;25;20012;-86
2024/04/13 09:57:18;;;;;;;0.20;0.20;;;17.40;1.00;;;;;;5558774;25;20005;-86
2024/04/13 09:59:46;;;;;;;0.20;0.20;;;17.50;1.00;;;;;;5559736;25;20531;-88
2024/04/13 10:02:12;;;;;;;0.10;0.10;;;17.60;1.00;;;;;;5559234;25;20005;-85
2024/04/13 10:04:38;;;;;;;0.20;0.20;;;17.70;1.00;;;;;;5560081;25;20484;-86
2024/04/13 10:07:06;;;;;;;0.10;0.10;;;17.80;1.00;;;;;;5554461;25;19993;-89
2024/04/13 10:09:34;;;;;;;0.10;0.10;;;17.90;1.00;;;;;;5523418;25;20034;-91
2024/04/13 10:12:01;;;;;;;0.20;0.20;;;18.00;1.00;;;;;;5519182;25;20001;-89
2024/04/13 10:14:28;;;;;;;0.20;0.20;;;18.10;1.00;;;;;;5521949;25;20012;-86
2024/04/13 10:16:57;;;;;;;0.20;0.20;;;18.20;1.00;;;;;;5521234;25;20445;-87
2024/04/13 10:19:22;;;;;;;0.10;0.10;;;18.30;1.00;;;;;;5521951;25;20005;-85
2024/04/13 10:21:49;;;;;;;0.20;0.20;;;18.30;1.00;;;;;;5520122;26;20449;-90
2024/04/13 10:24:16;;;;;;;0.20;0.20;;;18.40;1.00;;;;;;5521384;25;20559;-88
2024/04/13 10:26:43;;;;;;;0.10;0.10;;;18.40;1.00;;;;;;5520760;25;20038;-87
2024/04/13 10:29:08;;;;;;;0.10;0.10;;;18.50;1.00;;;;;;5522389;25;19997;-88
2024/04/13 10:31:34;;;;;;;0.10;0.10;;;18.60;1.00;;;;;;5519899;26;20390;-89
2024/04/13 10:34:00;;;;;;;0.17;0.17;;;18.70;1.00;;;;;;5521625;26;20012;-88
2024/04/13 10:36:27;;;;;;;0.10;0.10;;;18.80;1.00;;;;;;5520955;25;20016;-88
2024/04/13 10:38:57;;;;;;;0.20;0.20;;;18.90;1.00;;;;;;5519236;25;20005;-89
2024/04/13 10:41:32;;;;;;;0.20;0.20;;;19.00;1.00;;;;;;5522504;25;20006;-88
2024/04/13 10:43:59;;;;;;;0.20;0.20;;;19.10;1.00;;;;;;5522062;25;20337;-87
2024/04/13 10:46:25;;;;;;;0.20;0.20;;;19.10;1.00;;;;;;5525273;25;20491;-89
2024/04/13 10:48:52;;;;;;;0.13;0.13;;;19.20;1.00;;;;;;5522210;26;20002;-91
2024/04/13 10:51:18;;;;;;;0.10;0.10;;;19.20;1.00;;;;;;5523107;25;20016;-86
2024/04/13 10:53:45;;;;;;;0.20;0.20;;;19.30;1.00;;;;;;5520989;25;20077;-88
2024/04/13 10:56:12;;;;;;;0.20;0.20;;;19.30;1.00;;;;;;5521266;25;20033;-90
2024/04/13 10:58:39;;;;;;;0.13;0.13;;;19.40;1.00;;;;;;5521072;25;20030;-88
2024/04/13 11:01:06;;;;;;;0.20;0.20;;;19.40;1.00;;;;;;5520520;25;20387;-89
2024/04/13 11:03:33;;;;;;;0.28;0.28;;;19.50;1.00;;;;;;5521447;25;20397;-91
2024/04/13 11:06:01;;;;;;;0.13;0.13;;;19.50;1.00;;;;;;5517201;25;20036;-88
2024/04/13 11:08:28;;;;;;;0.15;0.15;;;19.50;1.00;;;;;;5530190;25;20044;-90
2024/04/13 11:11:00;;;;;;;0.20;0.20;;;19.50;1.00;;;;;;5556901;25;20102;-90
2024/04/13 11:13:29;;;;;;;0.20;0.20;;;19.60;1.00;;;;;;5562747;25;20363;-90
2024/04/13 11:15:56;;;;;;;0.10;0.10;;;19.60;1.00;;;;;;5543725;25;20026;-90
2024/04/13 11:18:23;;;;;;;0.20;0.20;;;19.70;1.00;;;;;;5520741;25;20022;-89
2024/04/13 11:20:57;;;;;;;0.10;0.10;;;19.80;1.00;;;;;;5519032;26;20017;-88
2024/04/13 11:23:23;;;;;;;0.20;0.20;;;19.80;1.00;;;;;;5524323;25;20023;-89
2024/04/13 11:25:49;;;;;;;0.20;0.20;;;20.00;1.00;;;;;;5534758;26;20006;-88
2024/04/13 11:28:16;;;;;;;0.10;0.10;;;20.10;1.00;;;;;;5525733;26;20025;-86
2024/04/13 11:30:42;;;;;;;0.20;0.20;;;20.20;1.00;;;;;;5522162;25;20006;-88
2024/04/13 11:33:09;;;;;;;0.20;0.20;;;20.20;1.00;;;;;;5521323;25;20412;-89
2024/04/13 11:35:35;;;;;;;0.15;0.15;;;20.30;1.00;;;;;;5522613;25;20523;-89
2024/04/13 11:38:01;;;;;;;0.20;0.20;;;20.40;1.00;;;;;;5522819;26;20077;-86
2024/04/13 11:40:30;;;;;;;0.20;0.20;;;20.50;1.00;;;;;;5524863;25;20018;-89
2024/04/13 11:42:56;;;;;;;0.20;0.20;;;20.50;1.00;;;;;;5524070;25;20318;-90
2024/04/13 11:45:23;;;;;;;0.20;0.20;;;20.60;1.00;;;;;;5528651;25;20471;-89
2024/04/13 11:47:50;;;;;;;0.10;0.10;;;20.70;1.00;;;;;;5525642;25;20002;-88
2024/04/13 11:50:16;;;;;;;0.15;0.15;;;20.70;1.00;;;;;;5524195;26;20017;-88
2024/04/13 11:52:42;;;;;;;0.20;0.20;;;20.90;1.00;;;;;;5522729;25;20485;-89
2024/04/13 11:55:08;;;;;;;0.10;0.10;;;20.90;1.00;;;;;;5524844;25;20016;-88
2024/04/13 11:57:44;;;;;;;0.20;0.20;;;21.00;1.00;;;;;;5523510;25;20005;-90
2024/04/13 12:00:10;;;;;;;0.20;0.20;;;21.10;1.00;;;;;;5524341;25;20535;-88
2024/04/13 12:02:36;;;;;;;0.10;0.10;;;21.20;1.00;;;;;;5535359;25;20001;-89
2024/04/13 12:05:01;;;;;;;0.20;0.20;;;21.30;1.00;;;;;;5560492;25;20458;-90
2024/04/13 12:07:27;;;;;;;0.20;0.20;;;21.40;1.00;;;;;;5560121;25;20009;-88
2024/04/13 12:09:53;;;;;;;0.20;0.20;;;21.40;1.00;;;;;;5542626;25;20008;-91
2024/04/13 12:12:18;;;;;;;0.10;0.10;;;21.40;1.00;;;;;;5525142;25;20020;-89
2024/04/13 12:14:47;;;;;;;0.17;0.17;;;21.30;1.00;;;;;;5527767;26;20005;-89
2024/04/13 12:17:14;;;;;;;0.20;0.20;;;21.40;1.00;;;;;;5522996;25;20450;-89
2024/04/13 12:19:40;;;;;;;0.20;0.20;;;21.40;1.00;;;;;;5524300;25;20005;-89
2024/04/13 12:22:06;;;;;;;0.10;0.10;;;21.50;1.00;;;;;;5522127;25;20005;-86
2024/04/13 12:24:32;;;;;;;0.20;0.20;;;21.50;1.00;;;;;;5524448;25;20341;-89
2024/04/13 12:26:58;;;;;;;0.20;0.20;;;21.50;1.00;;;;;;5523496;26;20001;-91
2024/04/13 12:29:25;;;;;;;0.20;0.20;;;21.50;1.00;;;;;;5539951;25;20028;-89
2024/04/13 12:31:50;;;;;;;0.20;0.20;;;21.50;1.00;;;;;;5523653;25;20000;-90
2024/04/13 12:34:16;;;;;;;0.20;0.20;;;21.60;1.00;;;;;;5522034;26;20029;-87
2024/04/13 12:36:42;;;;;;;0.20;0.20;;;21.60;1.00;;;;;;5522149;26;20005;-89
2024/04/13 12:39:10;;;;;;;0.20;0.20;;;21.60;1.00;;;;;;5523919;25;20005;-91
2024/04/13 12:41:36;;;;;;;0.20;0.20;;;21.60;1.00;;;;;;5524270;26;20006;-89
2024/04/13 12:44:03;;;;;;;0.10;0.10;;;21.50;1.00;;;;;;5523837;25;20001;-90
2024/04/13 12:46:29;;;;;;;0.10;0.10;;;21.50;1.00;;;;;;5522569;26;20017;-90
2024/04/13 12:48:55;;;;;;;0.20;0.20;;;21.40;1.00;;;;;;5523602;25;20073;-89
2024/04/13 12:51:20;;;;;;;0.20;0.20;;;21.50;1.00;;;;;;5525092;26;20077;-86
2024/04/13 12:53:46;;;;;;;0.20;0.20;;;21.40;1.00;;;;;;5528344;26;20017;-87
2024/04/13 12:56:12;;;;;;;0.20;0.20;;;21.30;1.00;;;;;;5525931;26;20013;-88
2024/04/13 12:58:37;;;;;;;0.20;0.20;;;21.20;1.00;;;;;;5523646;26;20037;-87